<?xml version="1.0" encoding="UTF-8" standalone="no" ?>
<gpx xmlns="http://www.topografix.com/GPX/1/1" xmlns:xsi="http://www.w3.org/2001/XMLSchema-instance" xsi:schemaLocation="http://www.topografix.com/GPX/1/1 http://www.topografix.com/GPX/1/1/gpx.xsd" version="1.1" creator="VisuGPX - https://www.visugpx.com">
  <metadata>
    <name>NF_2026 (20 Km)</name>
    <desc><![CDATA[Nordique Francilienne 2026]]></desc>
  </metadata>
  <trk>
    <name><![CDATA[NF_2026 (20 Km)]]></name>
    <trkseg>
      <trkpt lat="48.53866" lon="2.07945">
        <ele>82.92805</ele>
        <time>2025-10-12T12:05:09.195Z</time>
      </trkpt>
      <trkpt lat="48.53863" lon="2.07959">
        <ele>82.92805</ele>
        <time>2025-10-12T12:05:19.394Z</time>
      </trkpt>
      <trkpt lat="48.53876" lon="2.07987">
        <ele>82.92805</ele>
        <time>2025-10-12T12:05:42.745Z</time>
      </trkpt>
      <trkpt lat="48.53885" lon="2.07981">
        <ele>82.92805</ele>
        <time>2025-10-12T12:05:53.282Z</time>
      </trkpt>
      <trkpt lat="48.53893" lon="2.07975">
        <ele>82.92805</ele>
        <time>2025-10-12T12:06:02.975Z</time>
      </trkpt>
      <trkpt lat="48.53923" lon="2.07952">
        <ele>82.92805</ele>
        <time>2025-10-12T12:06:41.320Z</time>
      </trkpt>
      <trkpt lat="48.53924" lon="2.07942">
        <ele>82.967435</ele>
        <time>2025-10-12T12:06:49.099Z</time>
      </trkpt>
      <trkpt lat="48.53931" lon="2.07939">
        <ele>83.130405</ele>
        <time>2025-10-12T12:06:56.814Z</time>
      </trkpt>
      <trkpt lat="48.53934" lon="2.07943">
        <ele>83.231159</ele>
        <time>2025-10-12T12:07:01.499Z</time>
      </trkpt>
      <trkpt lat="48.53993" lon="2.07887">
        <ele>84.903485</ele>
        <time>2025-10-12T12:08:19.753Z</time>
      </trkpt>
      <trkpt lat="48.54" lon="2.07883">
        <ele>85.082343</ele>
        <time>2025-10-12T12:08:27.916Z</time>
      </trkpt>
      <trkpt lat="48.54007" lon="2.07879">
        <ele>85.271329</ele>
        <time>2025-10-12T12:08:36.708Z</time>
      </trkpt>
      <trkpt lat="48.54033" lon="2.08037">
        <ele>87.276131</ele>
        <time>2025-10-12T12:10:30.128Z</time>
      </trkpt>
      <trkpt lat="48.54104" lon="2.08575">
        <ele>87.093027</ele>
        <time>2025-10-12T12:16:35.151Z</time>
      </trkpt>
      <trkpt lat="48.54184" lon="2.09141">
        <ele>88.15242</ele>
        <time>2025-10-12T12:23:03.254Z</time>
      </trkpt>
      <trkpt lat="48.54197" lon="2.09232">
        <ele>88.358514</ele>
        <time>2025-10-12T12:24:05.811Z</time>
      </trkpt>
      <trkpt lat="48.54199" lon="2.09246">
        <ele>88.390011</ele>
        <time>2025-10-12T12:24:15.301Z</time>
      </trkpt>
      <trkpt lat="48.54212" lon="2.09365">
        <ele>89.744809</ele>
        <time>2025-10-12T12:25:38.293Z</time>
      </trkpt>
      <trkpt lat="48.54254" lon="2.0941">
        <ele>92.281577</ele>
        <time>2025-10-12T12:26:34.856Z</time>
      </trkpt>
      <trkpt lat="48.54262" lon="2.09419">
        <ele>92.808815</ele>
        <time>2025-10-12T12:26:47.063Z</time>
      </trkpt>
      <trkpt lat="48.54296" lon="2.0947">
        <ele>95.195084</ele>
        <time>2025-10-12T12:27:44.544Z</time>
      </trkpt>
      <trkpt lat="48.54307" lon="2.09482">
        <ele>95.857598</ele>
        <time>2025-10-12T12:28:01.210Z</time>
      </trkpt>
      <trkpt lat="48.54335" lon="2.09497">
        <ele>97.332404</ele>
        <time>2025-10-12T12:28:38.747Z</time>
      </trkpt>
      <trkpt lat="48.54341" lon="2.09506">
        <ele>97.950506</ele>
        <time>2025-10-12T12:28:49.700Z</time>
      </trkpt>
      <trkpt lat="48.5435" lon="2.09552">
        <ele>101.124923</ele>
        <time>2025-10-12T12:29:32.292Z</time>
      </trkpt>
      <trkpt lat="48.54358" lon="2.09566">
        <ele>102.314637</ele>
        <time>2025-10-12T12:29:48.581Z</time>
      </trkpt>
      <trkpt lat="48.54373" lon="2.09568">
        <ele>103.713421</ele>
        <time>2025-10-12T12:30:07.909Z</time>
      </trkpt>
      <trkpt lat="48.544" lon="2.09552">
        <ele>106.559995</ele>
        <time>2025-10-12T12:30:48.175Z</time>
      </trkpt>
      <trkpt lat="48.54431" lon="2.09523">
        <ele>110.15571</ele>
        <time>2025-10-12T12:31:39.597Z</time>
      </trkpt>
      <trkpt lat="48.54449" lon="2.09521">
        <ele>111.966983</ele>
        <time>2025-10-12T12:32:04.659Z</time>
      </trkpt>
      <trkpt lat="48.54498" lon="2.09556">
        <ele>116.003229</ele>
        <time>2025-10-12T12:33:15.862Z</time>
      </trkpt>
      <trkpt lat="48.54501" lon="2.0955">
        <ele>116.215868</ele>
        <time>2025-10-12T12:33:23.148Z</time>
      </trkpt>
      <trkpt lat="48.54593" lon="2.09512">
        <ele>119.848659</ele>
        <time>2025-10-12T12:35:13.829Z</time>
      </trkpt>
      <trkpt lat="48.54651" lon="2.09494">
        <ele>122.028193</ele>
        <time>2025-10-12T12:36:13.397Z</time>
      </trkpt>
      <trkpt lat="48.54807" lon="2.09453">
        <ele>118.758287</ele>
        <time>2025-10-12T12:38:58.740Z</time>
      </trkpt>
      <trkpt lat="48.54879" lon="2.0943">
        <ele>116.771792</ele>
        <time>2025-10-12T12:40:16.669Z</time>
      </trkpt>
      <trkpt lat="48.54877" lon="2.09444">
        <ele>116.493047</ele>
        <time>2025-10-12T12:40:26.701Z</time>
      </trkpt>
      <trkpt lat="48.54893" lon="2.09638">
        <ele>112.591943</ele>
        <time>2025-10-12T12:42:43.940Z</time>
      </trkpt>
      <trkpt lat="48.54898" lon="2.09658">
        <ele>112.094972</ele>
        <time>2025-10-12T12:42:58.801Z</time>
      </trkpt>
      <trkpt lat="48.54894" lon="2.09672">
        <ele>111.737871</ele>
        <time>2025-10-12T12:43:09.472Z</time>
      </trkpt>
      <trkpt lat="48.5486" lon="2.09753">
        <ele>109.471125</ele>
        <time>2025-10-12T12:44:17.794Z</time>
      </trkpt>
      <trkpt lat="48.54833" lon="2.09863">
        <ele>106.716592</ele>
        <time>2025-10-12T12:45:41.601Z</time>
      </trkpt>
      <trkpt lat="48.54822" lon="2.09939">
        <ele>104.976838</ele>
        <time>2025-10-12T12:46:37.582Z</time>
      </trkpt>
      <trkpt lat="48.54807" lon="2.09986">
        <ele>103.826459</ele>
        <time>2025-10-12T12:47:14.739Z</time>
      </trkpt>
      <trkpt lat="48.54807" lon="2.09989">
        <ele>103.755325</ele>
        <time>2025-10-12T12:47:16.997Z</time>
      </trkpt>
      <trkpt lat="48.54807" lon="2.1015">
        <ele>100.375035</ele>
        <time>2025-10-12T12:49:09.669Z</time>
      </trkpt>
      <trkpt lat="48.54802" lon="2.10313">
        <ele>98.542303</ele>
        <time>2025-10-12T12:51:02.831Z</time>
      </trkpt>
      <trkpt lat="48.54777" lon="2.10445">
        <ele>98.676442</ele>
        <time>2025-10-12T12:52:35.590Z</time>
      </trkpt>
      <trkpt lat="48.54763" lon="2.10498">
        <ele>100.095055</ele>
        <time>2025-10-12T12:53:14.990Z</time>
      </trkpt>
      <trkpt lat="48.54791" lon="2.10545">
        <ele>101.671251</ele>
        <time>2025-10-12T12:54:02.354Z</time>
      </trkpt>
      <trkpt lat="48.54837" lon="2.10604">
        <ele>103.91851</ele>
        <time>2025-10-12T12:55:17.084Z</time>
      </trkpt>
      <trkpt lat="48.54841" lon="2.1061">
        <ele>104.133058</ele>
        <time>2025-10-12T12:55:24.333Z</time>
      </trkpt>
      <trkpt lat="48.54883" lon="2.10636">
        <ele>107.45323</ele>
        <time>2025-10-12T12:56:22.782Z</time>
      </trkpt>
      <trkpt lat="48.5489" lon="2.10659">
        <ele>108.712841</ele>
        <time>2025-10-12T12:56:43.844Z</time>
      </trkpt>
      <trkpt lat="48.54909" lon="2.10679">
        <ele>110.459701</ele>
        <time>2025-10-12T12:57:12.884Z</time>
      </trkpt>
      <trkpt lat="48.5492" lon="2.10701">
        <ele>111.825697</ele>
        <time>2025-10-12T12:57:35.380Z</time>
      </trkpt>
      <trkpt lat="48.54917" lon="2.1071">
        <ele>112.298289</ele>
        <time>2025-10-12T12:57:43.159Z</time>
      </trkpt>
      <trkpt lat="48.54925" lon="2.10726">
        <ele>113.322536</ele>
        <time>2025-10-12T12:58:00.125Z</time>
      </trkpt>
      <trkpt lat="48.54928" lon="2.1074">
        <ele>114.05134</ele>
        <time>2025-10-12T12:58:12.137Z</time>
      </trkpt>
      <trkpt lat="48.5494" lon="2.10755">
        <ele>115.213742</ele>
        <time>2025-10-12T12:58:31.254Z</time>
      </trkpt>
      <trkpt lat="48.54946" lon="2.10791">
        <ele>117.076681</ele>
        <time>2025-10-12T12:59:01.663Z</time>
      </trkpt>
      <trkpt lat="48.54945" lon="2.10825">
        <ele>118.907023</ele>
        <time>2025-10-12T12:59:29.397Z</time>
      </trkpt>
      <trkpt lat="48.54951" lon="2.10848">
        <ele>120.346174</ele>
        <time>2025-10-12T12:59:49.889Z</time>
      </trkpt>
      <trkpt lat="48.54955" lon="2.10842">
        <ele>120.853192</ele>
        <time>2025-10-12T12:59:57.155Z</time>
      </trkpt>
      <trkpt lat="48.55013" lon="2.10795">
        <ele>126.585493</ele>
        <time>2025-10-12T13:01:23.522Z</time>
      </trkpt>
      <trkpt lat="48.55038" lon="2.10786">
        <ele>128.829009</ele>
        <time>2025-10-12T13:01:58.555Z</time>
      </trkpt>
      <trkpt lat="48.55076" lon="2.10785">
        <ele>132.101506</ele>
        <time>2025-10-12T13:02:49.372Z</time>
      </trkpt>
      <trkpt lat="48.55087" lon="2.1078">
        <ele>133.106202</ele>
        <time>2025-10-12T13:03:04.511Z</time>
      </trkpt>
      <trkpt lat="48.55097" lon="2.10776">
        <ele>133.750099</ele>
        <time>2025-10-12T13:03:17.188Z</time>
      </trkpt>
      <trkpt lat="48.55107" lon="2.10753">
        <ele>134.447049</ele>
        <time>2025-10-12T13:03:40.504Z</time>
      </trkpt>
      <trkpt lat="48.55114" lon="2.10723">
        <ele>135.238288</ele>
        <time>2025-10-12T13:04:05.955Z</time>
      </trkpt>
      <trkpt lat="48.55108" lon="2.10695">
        <ele>135.975092</ele>
        <time>2025-10-12T13:04:28.301Z</time>
      </trkpt>
      <trkpt lat="48.55088" lon="2.10651">
        <ele>137.296149</ele>
        <time>2025-10-12T13:05:06.281Z</time>
      </trkpt>
      <trkpt lat="48.5506" lon="2.10607">
        <ele>138.822664</ele>
        <time>2025-10-12T13:05:48.357Z</time>
      </trkpt>
      <trkpt lat="48.55037" lon="2.1058">
        <ele>139.899247</ele>
        <time>2025-10-12T13:06:18.155Z</time>
      </trkpt>
      <trkpt lat="48.55029" lon="2.10559">
        <ele>140.538979</ele>
        <time>2025-10-12T13:06:34.920Z</time>
      </trkpt>
      <trkpt lat="48.55032" lon="2.10525">
        <ele>141.650207</ele>
        <time>2025-10-12T13:06:59.697Z</time>
      </trkpt>
      <trkpt lat="48.55034" lon="2.10503">
        <ele>142.329645</ele>
        <time>2025-10-12T13:07:15.179Z</time>
      </trkpt>
      <trkpt lat="48.5506" lon="2.10429">
        <ele>145.008631</ele>
        <time>2025-10-12T13:08:20.668Z</time>
      </trkpt>
      <trkpt lat="48.55164" lon="2.103">
        <ele>150.078295</ele>
        <time>2025-10-12T13:11:06.265Z</time>
      </trkpt>
      <trkpt lat="48.55196" lon="2.10284">
        <ele>150.780989</ele>
        <time>2025-10-12T13:11:43.398Z</time>
      </trkpt>
      <trkpt lat="48.55217" lon="2.10282">
        <ele>151.240171</ele>
        <time>2025-10-12T13:12:06.867Z</time>
      </trkpt>
      <trkpt lat="48.55239" lon="2.103">
        <ele>151.762497</ele>
        <time>2025-10-12T13:12:32.421Z</time>
      </trkpt>
      <trkpt lat="48.55325" lon="2.10287">
        <ele>150.717964</ele>
        <time>2025-10-12T13:14:02.701Z</time>
      </trkpt>
      <trkpt lat="48.5534" lon="2.10356">
        <ele>148.118146</ele>
        <time>2025-10-12T13:14:55.852Z</time>
      </trkpt>
      <trkpt lat="48.55339" lon="2.10405">
        <ele>146.354889</ele>
        <time>2025-10-12T13:15:32.886Z</time>
      </trkpt>
      <trkpt lat="48.55338" lon="2.10442">
        <ele>145.030726</ele>
        <time>2025-10-12T13:16:01.098Z</time>
      </trkpt>
      <trkpt lat="48.55358" lon="2.10494">
        <ele>142.846237</ele>
        <time>2025-10-12T13:16:47.347Z</time>
      </trkpt>
      <trkpt lat="48.55365" lon="2.10539">
        <ele>140.88456</ele>
        <time>2025-10-12T13:17:22.591Z</time>
      </trkpt>
      <trkpt lat="48.55369" lon="2.10548">
        <ele>140.434992</ele>
        <time>2025-10-12T13:17:30.654Z</time>
      </trkpt>
      <trkpt lat="48.55411" lon="2.10592">
        <ele>137.193591</ele>
        <time>2025-10-12T13:18:27.966Z</time>
      </trkpt>
      <trkpt lat="48.55417" lon="2.10663">
        <ele>134.143323</ele>
        <time>2025-10-12T13:19:20.986Z</time>
      </trkpt>
      <trkpt lat="48.55427" lon="2.10654">
        <ele>133.391303</ele>
        <time>2025-10-12T13:19:34.014Z</time>
      </trkpt>
      <trkpt lat="48.55432" lon="2.10653">
        <ele>133.036942</ele>
        <time>2025-10-12T13:19:40.063Z</time>
      </trkpt>
      <trkpt lat="48.55439" lon="2.10657">
        <ele>132.55527</ele>
        <time>2025-10-12T13:19:48.511Z</time>
      </trkpt>
      <trkpt lat="48.55446" lon="2.10671">
        <ele>131.839733</ele>
        <time>2025-10-12T13:20:00.832Z</time>
      </trkpt>
      <trkpt lat="48.55455" lon="2.10705">
        <ele>130.315827</ele>
        <time>2025-10-12T13:20:28.118Z</time>
      </trkpt>
      <trkpt lat="48.55469" lon="2.10753">
        <ele>128.155443</ele>
        <time>2025-10-12T13:21:07.227Z</time>
      </trkpt>
      <trkpt lat="48.55517" lon="2.10928">
        <ele>120.420965</ele>
        <time>2025-10-12T13:23:29.441Z</time>
      </trkpt>
      <trkpt lat="48.55567" lon="2.11085">
        <ele>115.862355</ele>
        <time>2025-10-12T13:25:36.922Z</time>
      </trkpt>
      <trkpt lat="48.55583" lon="2.11145">
        <ele>114.164193</ele>
        <time>2025-10-12T13:26:23.035Z</time>
      </trkpt>
      <trkpt lat="48.55587" lon="2.11175">
        <ele>113.352461</ele>
        <time>2025-10-12T13:26:44.065Z</time>
      </trkpt>
      <trkpt lat="48.55586" lon="2.112">
        <ele>114.21725</ele>
        <time>2025-10-12T13:27:00.499Z</time>
      </trkpt>
      <trkpt lat="48.55583" lon="2.11221">
        <ele>115.079953</ele>
        <time>2025-10-12T13:27:15.632Z</time>
      </trkpt>
      <trkpt lat="48.55568" lon="2.11272">
        <ele>117.299433</ele>
        <time>2025-10-12T13:27:57.257Z</time>
      </trkpt>
      <trkpt lat="48.5564" lon="2.11296">
        <ele>121.737095</ele>
        <time>2025-10-12T13:29:32.064Z</time>
      </trkpt>
      <trkpt lat="48.55746" lon="2.11283">
        <ele>128.850512</ele>
        <time>2025-10-12T13:31:55.267Z</time>
      </trkpt>
      <trkpt lat="48.55736" lon="2.11172">
        <ele>134.110881</ele>
        <time>2025-10-12T13:33:24.811Z</time>
      </trkpt>
      <trkpt lat="48.55738" lon="2.11122">
        <ele>136.484486</ele>
        <time>2025-10-12T13:34:02.786Z</time>
      </trkpt>
      <trkpt lat="48.55734" lon="2.11066">
        <ele>138.166865</ele>
        <time>2025-10-12T13:34:44.965Z</time>
      </trkpt>
      <trkpt lat="48.55722" lon="2.11007">
        <ele>139.802618</ele>
        <time>2025-10-12T13:35:32.408Z</time>
      </trkpt>
      <trkpt lat="48.55726" lon="2.10973">
        <ele>140.723999</ele>
        <time>2025-10-12T13:35:59.369Z</time>
      </trkpt>
      <trkpt lat="48.55748" lon="2.10903">
        <ele>142.790008</ele>
        <time>2025-10-12T13:36:59.665Z</time>
      </trkpt>
      <trkpt lat="48.55554" lon="2.104">
        <ele>151.058929</ele>
        <time>2025-10-12T13:43:50.628Z</time>
      </trkpt>
      <trkpt lat="48.55506" lon="2.10232">
        <ele>153.74578</ele>
        <time>2025-10-12T13:46:02.783Z</time>
      </trkpt>
      <trkpt lat="48.55488" lon="2.10139">
        <ele>155.169429</ele>
        <time>2025-10-12T13:47:11.800Z</time>
      </trkpt>
      <trkpt lat="48.55472" lon="2.10049">
        <ele>155.702001</ele>
        <time>2025-10-12T13:48:16.939Z</time>
      </trkpt>
      <trkpt lat="48.55442" lon="2.09965">
        <ele>156.214327</ele>
        <time>2025-10-12T13:49:21.338Z</time>
      </trkpt>
      <trkpt lat="48.55413" lon="2.09825">
        <ele>156.621904</ele>
        <time>2025-10-12T13:50:59.037Z</time>
      </trkpt>
      <trkpt lat="48.55401" lon="2.09697">
        <ele>156.495873</ele>
        <time>2025-10-12T13:52:24.543Z</time>
      </trkpt>
      <trkpt lat="48.55342" lon="2.09532">
        <ele>155.723448</ele>
        <time>2025-10-12T13:54:30.555Z</time>
      </trkpt>
      <trkpt lat="48.5532" lon="2.09467">
        <ele>155.251601</ele>
        <time>2025-10-12T13:55:19.635Z</time>
      </trkpt>
      <trkpt lat="48.55292" lon="2.09386">
        <ele>154.658119</ele>
        <time>2025-10-12T13:56:21.806Z</time>
      </trkpt>
      <trkpt lat="48.5528" lon="2.09359">
        <ele>154.339481</ele>
        <time>2025-10-12T13:56:43.805Z</time>
      </trkpt>
      <trkpt lat="48.55249" lon="2.09286">
        <ele>153.456884</ele>
        <time>2025-10-12T13:57:43.431Z</time>
      </trkpt>
      <trkpt lat="48.55213" lon="2.09198">
        <ele>152.399469</ele>
        <time>2025-10-12T13:58:54.628Z</time>
      </trkpt>
      <trkpt lat="48.55205" lon="2.09156">
        <ele>151.959988</ele>
        <time>2025-10-12T13:59:24.212Z</time>
      </trkpt>
      <trkpt lat="48.55192" lon="2.08964">
        <ele>150.938162</ele>
        <time>2025-10-12T14:01:35.123Z</time>
      </trkpt>
      <trkpt lat="48.55192" lon="2.08952">
        <ele>150.875516</ele>
        <time>2025-10-12T14:01:43.338Z</time>
      </trkpt>
      <trkpt lat="48.55193" lon="2.08837">
        <ele>151.062852</ele>
        <time>2025-10-12T14:02:59.333Z</time>
      </trkpt>
      <trkpt lat="48.55196" lon="2.08807">
        <ele>151.492831</ele>
        <time>2025-10-12T14:03:20.793Z</time>
      </trkpt>
      <trkpt lat="48.55203" lon="2.08776">
        <ele>151.941029</ele>
        <time>2025-10-12T14:03:43.580Z</time>
      </trkpt>
      <trkpt lat="48.55205" lon="2.08752">
        <ele>152.272397</ele>
        <time>2025-10-12T14:04:00.674Z</time>
      </trkpt>
      <trkpt lat="48.55205" lon="2.08728">
        <ele>152.612079</ele>
        <time>2025-10-12T14:04:18.408Z</time>
      </trkpt>
      <trkpt lat="48.55303" lon="2.08735">
        <ele>154.684451</ele>
        <time>2025-10-12T14:06:07.458Z</time>
      </trkpt>
      <trkpt lat="48.55349" lon="2.08759">
        <ele>155.776214</ele>
        <time>2025-10-12T14:07:02.306Z</time>
      </trkpt>
      <trkpt lat="48.55456" lon="2.08839">
        <ele>158.199287</ele>
        <time>2025-10-12T14:09:09.294Z</time>
      </trkpt>
      <trkpt lat="48.55559" lon="2.08905">
        <ele>157.219673</ele>
        <time>2025-10-12T14:11:02.140Z</time>
      </trkpt>
      <trkpt lat="48.55683" lon="2.09036">
        <ele>152.366393</ele>
        <time>2025-10-12T14:13:43.096Z</time>
      </trkpt>
      <trkpt lat="48.55686" lon="2.09083">
        <ele>150.861981</ele>
        <time>2025-10-12T14:14:18.033Z</time>
      </trkpt>
      <trkpt lat="48.55773" lon="2.09141">
        <ele>145.052458</ele>
        <time>2025-10-12T14:16:06.477Z</time>
      </trkpt>
      <trkpt lat="48.55868" lon="2.09188">
        <ele>136.848986</ele>
        <time>2025-10-12T14:18:04.251Z</time>
      </trkpt>
      <trkpt lat="48.55959" lon="2.09178">
        <ele>130.001963</ele>
        <time>2025-10-12T14:19:50.701Z</time>
      </trkpt>
      <trkpt lat="48.56028" lon="2.09143">
        <ele>124.919789</ele>
        <time>2025-10-12T14:21:14.408Z</time>
      </trkpt>
      <trkpt lat="48.56097" lon="2.09115">
        <ele>120.396929</ele>
        <time>2025-10-12T14:22:33.948Z</time>
      </trkpt>
      <trkpt lat="48.56161" lon="2.09116">
        <ele>118.016266</ele>
        <time>2025-10-12T14:23:43.596Z</time>
      </trkpt>
      <trkpt lat="48.56226" lon="2.09131">
        <ele>115.593897</ele>
        <time>2025-10-12T14:24:53.214Z</time>
      </trkpt>
      <trkpt lat="48.56267" lon="2.09136">
        <ele>114.102004</ele>
        <time>2025-10-12T14:25:36.631Z</time>
      </trkpt>
      <trkpt lat="48.56366" lon="2.09148">
        <ele>110.905969</ele>
        <time>2025-10-12T14:27:22.648Z</time>
      </trkpt>
      <trkpt lat="48.56499" lon="2.09201">
        <ele>107.155244</ele>
        <time>2025-10-12T14:29:49.717Z</time>
      </trkpt>
      <trkpt lat="48.56618" lon="2.09452">
        <ele>103.571662</ele>
        <time>2025-10-12T14:33:20.157Z</time>
      </trkpt>
      <trkpt lat="48.56623" lon="2.09459">
        <ele>103.486554</ele>
        <time>2025-10-12T14:33:26.970Z</time>
      </trkpt>
      <trkpt lat="48.56618" lon="2.09452">
        <ele>103.401446</ele>
        <time>2025-10-12T14:33:33.762Z</time>
      </trkpt>
      <trkpt lat="48.56712" lon="2.09451">
        <ele>102.154519</ele>
        <time>2025-10-12T14:35:09.342Z</time>
      </trkpt>
      <trkpt lat="48.56823" lon="2.09439">
        <ele>100.237425</ele>
        <time>2025-10-12T14:37:04.730Z</time>
      </trkpt>
      <trkpt lat="48.56861" lon="2.09438">
        <ele>99.600412</ele>
        <time>2025-10-12T14:37:43.679Z</time>
      </trkpt>
      <trkpt lat="48.56895" lon="2.09432">
        <ele>99.033926</ele>
        <time>2025-10-12T14:38:20.250Z</time>
      </trkpt>
      <trkpt lat="48.5693" lon="2.09444">
        <ele>98.474234</ele>
        <time>2025-10-12T14:38:58.818Z</time>
      </trkpt>
      <trkpt lat="48.56909" lon="2.09393">
        <ele>97.85387</ele>
        <time>2025-10-12T14:39:41.168Z</time>
      </trkpt>
      <trkpt lat="48.56891" lon="2.09317">
        <ele>97.024845</ele>
        <time>2025-10-12T14:40:36.441Z</time>
      </trkpt>
      <trkpt lat="48.56892" lon="2.09299">
        <ele>96.842043</ele>
        <time>2025-10-12T14:40:48.333Z</time>
      </trkpt>
      <trkpt lat="48.56888" lon="2.09299">
        <ele>96.772348</ele>
        <time>2025-10-12T14:40:52.815Z</time>
      </trkpt>
      <trkpt lat="48.56724" lon="2.0929">
        <ele>98.148043</ele>
        <time>2025-10-12T14:43:45.136Z</time>
      </trkpt>
      <trkpt lat="48.56685" lon="2.09216">
        <ele>98.674422</ele>
        <time>2025-10-12T14:44:50.353Z</time>
      </trkpt>
      <trkpt lat="48.56612" lon="2.09128">
        <ele>99.191306</ele>
        <time>2025-10-12T14:46:25.369Z</time>
      </trkpt>
      <trkpt lat="48.56589" lon="2.09104">
        <ele>99.342274</ele>
        <time>2025-10-12T14:46:53.041Z</time>
      </trkpt>
      <trkpt lat="48.56551" lon="2.09051">
        <ele>99.666988</ele>
        <time>2025-10-12T14:47:45.431Z</time>
      </trkpt>
      <trkpt lat="48.56537" lon="2.0903">
        <ele>99.809264</ele>
        <time>2025-10-12T14:48:05.435Z</time>
      </trkpt>
      <trkpt lat="48.56352" lon="2.08826">
        <ele>102.582148</ele>
        <time>2025-10-12T14:52:01.814Z</time>
      </trkpt>
      <trkpt lat="48.56282" lon="2.08728">
        <ele>104.539586</ele>
        <time>2025-10-12T14:53:46.193Z</time>
      </trkpt>
      <trkpt lat="48.56241" lon="2.08676">
        <ele>106.457047</ele>
        <time>2025-10-12T14:54:47.796Z</time>
      </trkpt>
      <trkpt lat="48.56221" lon="2.0842">
        <ele>110.578176</ele>
        <time>2025-10-12T14:58:00.984Z</time>
      </trkpt>
      <trkpt lat="48.56306" lon="2.08409">
        <ele>110.352461</ele>
        <time>2025-10-12T14:59:28.302Z</time>
      </trkpt>
      <trkpt lat="48.56305" lon="2.08328">
        <ele>109.698681</ele>
        <time>2025-10-12T15:00:26.235Z</time>
      </trkpt>
      <trkpt lat="48.56307" lon="2.08298">
        <ele>108.782518</ele>
        <time>2025-10-12T15:00:47.808Z</time>
      </trkpt>
      <trkpt lat="48.56316" lon="2.08259">
        <ele>107.510417</ele>
        <time>2025-10-12T15:01:17.946Z</time>
      </trkpt>
      <trkpt lat="48.56342" lon="2.08199">
        <ele>105.324316</ele>
        <time>2025-10-12T15:02:10.264Z</time>
      </trkpt>
      <trkpt lat="48.56361" lon="2.08135">
        <ele>103.159281</ele>
        <time>2025-10-12T15:03:02.752Z</time>
      </trkpt>
      <trkpt lat="48.56376" lon="2.08068">
        <ele>101.854627</ele>
        <time>2025-10-12T15:03:53.429Z</time>
      </trkpt>
      <trkpt lat="48.56393" lon="2.08011">
        <ele>101.778784</ele>
        <time>2025-10-12T15:04:36.826Z</time>
      </trkpt>
      <trkpt lat="48.56396" lon="2.08003">
        <ele>101.767514</ele>
        <time>2025-10-12T15:04:43.159Z</time>
      </trkpt>
      <trkpt lat="48.56371" lon="2.08017">
        <ele>101.719484</ele>
        <time>2025-10-12T15:05:09.652Z</time>
      </trkpt>
      <trkpt lat="48.56351" lon="2.0805">
        <ele>101.665873</ele>
        <time>2025-10-12T15:05:39.988Z</time>
      </trkpt>
      <trkpt lat="48.563" lon="2.08057">
        <ele>101.572153</ele>
        <time>2025-10-12T15:06:35.785Z</time>
      </trkpt>
      <trkpt lat="48.56276" lon="2.08052">
        <ele>102.338234</ele>
        <time>2025-10-12T15:07:02.586Z</time>
      </trkpt>
      <trkpt lat="48.56244" lon="2.0802">
        <ele>104.015261</ele>
        <time>2025-10-12T15:07:46.850Z</time>
      </trkpt>
      <trkpt lat="48.56231" lon="2.07997">
        <ele>104.8678</ele>
        <time>2025-10-12T15:08:09.547Z</time>
      </trkpt>
      <trkpt lat="48.56219" lon="2.07981">
        <ele>105.544914</ele>
        <time>2025-10-12T15:08:27.686Z</time>
      </trkpt>
      <trkpt lat="48.56172" lon="2.07979">
        <ele>107.577258</ele>
        <time>2025-10-12T15:09:22.873Z</time>
      </trkpt>
      <trkpt lat="48.56103" lon="2.07953">
        <ele>110.977508</ele>
        <time>2025-10-12T15:10:47.152Z</time>
      </trkpt>
      <trkpt lat="48.56074" lon="2.0795">
        <ele>112.550954</ele>
        <time>2025-10-12T15:11:21.536Z</time>
      </trkpt>
      <trkpt lat="48.56041" lon="2.07957">
        <ele>114.334621</ele>
        <time>2025-10-12T15:12:00.466Z</time>
      </trkpt>
      <trkpt lat="48.56027" lon="2.07966">
        <ele>115.141404</ele>
        <time>2025-10-12T15:12:17.707Z</time>
      </trkpt>
      <trkpt lat="48.56005" lon="2.07986">
        <ele>116.556856</ele>
        <time>2025-10-12T15:12:48.192Z</time>
      </trkpt>
      <trkpt lat="48.55983" lon="2.08006">
        <ele>117.922296</ele>
        <time>2025-10-12T15:13:17.988Z</time>
      </trkpt>
      <trkpt lat="48.55971" lon="2.08017">
        <ele>118.722267</ele>
        <time>2025-10-12T15:13:35.710Z</time>
      </trkpt>
      <trkpt lat="48.55944" lon="2.08051">
        <ele>121.503352</ele>
        <time>2025-10-12T15:14:18.336Z</time>
      </trkpt>
      <trkpt lat="48.55934" lon="2.08051">
        <ele>122.368738</ele>
        <time>2025-10-12T15:14:31.019Z</time>
      </trkpt>
      <trkpt lat="48.55875" lon="2.08157">
        <ele>130.032392</ele>
        <time>2025-10-12T15:16:28.949Z</time>
      </trkpt>
      <trkpt lat="48.55854" lon="2.08207">
        <ele>133.347185</ele>
        <time>2025-10-12T15:17:22.322Z</time>
      </trkpt>
      <trkpt lat="48.55768" lon="2.08327">
        <ele>143.350145</ele>
        <time>2025-10-12T15:19:58.895Z</time>
      </trkpt>
      <trkpt lat="48.55731" lon="2.08291">
        <ele>147.126721</ele>
        <time>2025-10-12T15:20:55.165Z</time>
      </trkpt>
      <trkpt lat="48.55709" lon="2.08261">
        <ele>149.495867</ele>
        <time>2025-10-12T15:21:30.600Z</time>
      </trkpt>
      <trkpt lat="48.55698" lon="2.08234">
        <ele>149.995207</ele>
        <time>2025-10-12T15:21:55.199Z</time>
      </trkpt>
      <trkpt lat="48.55686" lon="2.08169">
        <ele>151.063469</ele>
        <time>2025-10-12T15:22:45.557Z</time>
      </trkpt>
      <trkpt lat="48.55681" lon="2.08193">
        <ele>151.462765</ele>
        <time>2025-10-12T15:23:03.595Z</time>
      </trkpt>
      <trkpt lat="48.55686" lon="2.08169">
        <ele>151.86206</ele>
        <time>2025-10-12T15:23:21.254Z</time>
      </trkpt>
      <trkpt lat="48.55672" lon="2.08005">
        <ele>153.845302</ele>
        <time>2025-10-12T15:25:12.289Z</time>
      </trkpt>
      <trkpt lat="48.55672" lon="2.0793">
        <ele>153.999359</ele>
        <time>2025-10-12T15:26:01.764Z</time>
      </trkpt>
      <trkpt lat="48.55661" lon="2.0791">
        <ele>154.053535</ele>
        <time>2025-10-12T15:26:19.220Z</time>
      </trkpt>
      <trkpt lat="48.55638" lon="2.07881">
        <ele>154.147238</ele>
        <time>2025-10-12T15:26:49.532Z</time>
      </trkpt>
      <trkpt lat="48.55633" lon="2.07876">
        <ele>154.164311</ele>
        <time>2025-10-12T15:26:55.089Z</time>
      </trkpt>
      <trkpt lat="48.55594" lon="2.07026">
        <ele>157.187529</ele>
        <time>2025-10-12T15:36:31.970Z</time>
      </trkpt>
      <trkpt lat="48.55588" lon="2.06918">
        <ele>156.61877</ele>
        <time>2025-10-12T15:37:44.141Z</time>
      </trkpt>
      <trkpt lat="48.55586" lon="2.06896">
        <ele>156.421792</ele>
        <time>2025-10-12T15:37:58.990Z</time>
      </trkpt>
      <trkpt lat="48.55575" lon="2.06677">
        <ele>153.833381</ele>
        <time>2025-10-12T15:40:29.615Z</time>
      </trkpt>
      <trkpt lat="48.55566" lon="2.06502">
        <ele>149.700229</ele>
        <time>2025-10-12T15:42:34.976Z</time>
      </trkpt>
      <trkpt lat="48.55558" lon="2.06353">
        <ele>145.624817</ele>
        <time>2025-10-12T15:44:23.939Z</time>
      </trkpt>
      <trkpt lat="48.55588" lon="2.06282">
        <ele>143.167644</ele>
        <time>2025-10-12T15:45:25.281Z</time>
      </trkpt>
      <trkpt lat="48.55636" lon="2.06226">
        <ele>140.515999</ele>
        <time>2025-10-12T15:46:31.323Z</time>
      </trkpt>
      <trkpt lat="48.55659" lon="2.06114">
        <ele>139.607019</ele>
        <time>2025-10-12T15:47:52.710Z</time>
      </trkpt>
      <trkpt lat="48.55668" lon="2.061">
        <ele>139.45689</ele>
        <time>2025-10-12T15:48:05.771Z</time>
      </trkpt>
      <trkpt lat="48.55685" lon="2.06074">
        <ele>139.167059</ele>
        <time>2025-10-12T15:48:30.786Z</time>
      </trkpt>
      <trkpt lat="48.55737" lon="2.05997">
        <ele>138.119618</ele>
        <time>2025-10-12T15:49:45.823Z</time>
      </trkpt>
      <trkpt lat="48.5576" lon="2.05993">
        <ele>137.322658</ele>
        <time>2025-10-12T15:50:09.701Z</time>
      </trkpt>
      <trkpt lat="48.55778" lon="2.05971">
        <ele>136.55039</ele>
        <time>2025-10-12T15:50:33.479Z</time>
      </trkpt>
      <trkpt lat="48.55799" lon="2.0596">
        <ele>135.7789</ele>
        <time>2025-10-12T15:50:57.515Z</time>
      </trkpt>
      <trkpt lat="48.55809" lon="2.05952">
        <ele>135.39873</ele>
        <time>2025-10-12T15:51:09.637Z</time>
      </trkpt>
      <trkpt lat="48.55858" lon="2.05901">
        <ele>133.395073</ele>
        <time>2025-10-12T15:52:14.581Z</time>
      </trkpt>
      <trkpt lat="48.55878" lon="2.05901">
        <ele>132.709585</ele>
        <time>2025-10-12T15:52:37.403Z</time>
      </trkpt>
      <trkpt lat="48.55922" lon="2.05886">
        <ele>129.989726</ele>
        <time>2025-10-12T15:53:28.654Z</time>
      </trkpt>
      <trkpt lat="48.55935" lon="2.05892">
        <ele>129.033661</ele>
        <time>2025-10-12T15:53:44.329Z</time>
      </trkpt>
      <trkpt lat="48.55939" lon="2.05898">
        <ele>128.617761</ele>
        <time>2025-10-12T15:53:51.248Z</time>
      </trkpt>
      <trkpt lat="48.55982" lon="2.05903">
        <ele>125.652516</ele>
        <time>2025-10-12T15:54:39.554Z</time>
      </trkpt>
      <trkpt lat="48.55993" lon="2.05907">
        <ele>124.822235</ele>
        <time>2025-10-12T15:54:53.033Z</time>
      </trkpt>
      <trkpt lat="48.56149" lon="2.05903">
        <ele>113.258979</ele>
        <time>2025-10-12T15:57:52.090Z</time>
      </trkpt>
      <trkpt lat="48.56198" lon="2.05922">
        <ele>109.292477</ele>
        <time>2025-10-12T15:58:51.723Z</time>
      </trkpt>
      <trkpt lat="48.56262" lon="2.05923">
        <ele>105.632917</ele>
        <time>2025-10-12T16:00:05.560Z</time>
      </trkpt>
      <trkpt lat="48.56267" lon="2.05923">
        <ele>105.599273</ele>
        <time>2025-10-12T16:00:12.211Z</time>
      </trkpt>
      <trkpt lat="48.56267" lon="2.05987">
        <ele>105.35626</ele>
        <time>2025-10-12T16:00:58.750Z</time>
      </trkpt>
      <trkpt lat="48.56266" lon="2.06038">
        <ele>105.159314</ele>
        <time>2025-10-12T16:01:34.259Z</time>
      </trkpt>
      <trkpt lat="48.56268" lon="2.0606">
        <ele>105.074749</ele>
        <time>2025-10-12T16:01:49.185Z</time>
      </trkpt>
      <trkpt lat="48.56278" lon="2.06103">
        <ele>104.89835</ele>
        <time>2025-10-12T16:02:22.964Z</time>
      </trkpt>
      <trkpt lat="48.56287" lon="2.06147">
        <ele>104.721951</ele>
        <time>2025-10-12T16:02:59.372Z</time>
      </trkpt>
      <trkpt lat="48.56281" lon="2.06143">
        <ele>104.92876</ele>
        <time>2025-10-12T16:03:07.226Z</time>
      </trkpt>
      <trkpt lat="48.56245" lon="2.06143">
        <ele>109.424297</ele>
        <time>2025-10-12T16:03:54.619Z</time>
      </trkpt>
      <trkpt lat="48.56205" lon="2.06162">
        <ele>114.572523</ele>
        <time>2025-10-12T16:04:54.218Z</time>
      </trkpt>
      <trkpt lat="48.56177" lon="2.06191">
        <ele>118.722313</ele>
        <time>2025-10-12T16:05:49.534Z</time>
      </trkpt>
      <trkpt lat="48.56167" lon="2.06199">
        <ele>120.197456</ele>
        <time>2025-10-12T16:06:09.585Z</time>
      </trkpt>
      <trkpt lat="48.56139" lon="2.06215">
        <ele>123.844128</ele>
        <time>2025-10-12T16:06:59.073Z</time>
      </trkpt>
      <trkpt lat="48.56114" lon="2.06222">
        <ele>127.01725</ele>
        <time>2025-10-12T16:07:41.416Z</time>
      </trkpt>
      <trkpt lat="48.56101" lon="2.06231">
        <ele>128.593334</ele>
        <time>2025-10-12T16:08:03.309Z</time>
      </trkpt>
      <trkpt lat="48.56076" lon="2.06267">
        <ele>132.698115</ele>
        <time>2025-10-12T16:08:59.308Z</time>
      </trkpt>
      <trkpt lat="48.56002" lon="2.06387">
        <ele>145.514951</ele>
        <time>2025-10-12T16:11:33.547Z</time>
      </trkpt>
      <trkpt lat="48.55944" lon="2.06437">
        <ele>150.01272</ele>
        <time>2025-10-12T16:12:56.561Z</time>
      </trkpt>
      <trkpt lat="48.55932" lon="2.0645">
        <ele>150.650015</ele>
        <time>2025-10-12T16:13:14.211Z</time>
      </trkpt>
      <trkpt lat="48.55923" lon="2.06465">
        <ele>151.20592</ele>
        <time>2025-10-12T16:13:29.415Z</time>
      </trkpt>
      <trkpt lat="48.55917" lon="2.06484">
        <ele>151.805162</ele>
        <time>2025-10-12T16:13:45.501Z</time>
      </trkpt>
      <trkpt lat="48.55905" lon="2.06494">
        <ele>152.411378</ele>
        <time>2025-10-12T16:14:01.430Z</time>
      </trkpt>
      <trkpt lat="48.5589" lon="2.06513">
        <ele>153.224402</ele>
        <time>2025-10-12T16:14:22.561Z</time>
      </trkpt>
      <trkpt lat="48.55877" lon="2.06515">
        <ele>153.791079</ele>
        <time>2025-10-12T16:14:36.817Z</time>
      </trkpt>
      <trkpt lat="48.55811" lon="2.06581">
        <ele>155.894324</ele>
        <time>2025-10-12T16:15:59.489Z</time>
      </trkpt>
      <trkpt lat="48.55789" lon="2.06591">
        <ele>155.984071</ele>
        <time>2025-10-12T16:16:22.644Z</time>
      </trkpt>
      <trkpt lat="48.55758" lon="2.06642">
        <ele>156.162981</ele>
        <time>2025-10-12T16:17:08.353Z</time>
      </trkpt>
      <trkpt lat="48.55738" lon="2.06675">
        <ele>156.278634</ele>
        <time>2025-10-12T16:17:37.930Z</time>
      </trkpt>
      <trkpt lat="48.55689" lon="2.06723">
        <ele>156.416232</ele>
        <time>2025-10-12T16:18:36.252Z</time>
      </trkpt>
      <trkpt lat="48.55655" lon="2.06773">
        <ele>156.129034</ele>
        <time>2025-10-12T16:19:24.860Z</time>
      </trkpt>
      <trkpt lat="48.55631" lon="2.06809">
        <ele>155.924379</ele>
        <time>2025-10-12T16:19:58.756Z</time>
      </trkpt>
      <trkpt lat="48.55586" lon="2.06896">
        <ele>155.484368</ele>
        <time>2025-10-12T16:21:13.617Z</time>
      </trkpt>
      <trkpt lat="48.55581" lon="2.06914">
        <ele>155.403099</ele>
        <time>2025-10-12T16:21:27.470Z</time>
      </trkpt>
      <trkpt lat="48.55543" lon="2.06897">
        <ele>155.015946</ele>
        <time>2025-10-12T16:22:09.059Z</time>
      </trkpt>
      <trkpt lat="48.55529" lon="2.06892">
        <ele>154.871366</ele>
        <time>2025-10-12T16:22:24.084Z</time>
      </trkpt>
      <trkpt lat="48.55485" lon="2.06892">
        <ele>154.438696</ele>
        <time>2025-10-12T16:23:09.298Z</time>
      </trkpt>
      <trkpt lat="48.55469" lon="2.06984">
        <ele>153.81312</ele>
        <time>2025-10-12T16:24:13.339Z</time>
      </trkpt>
      <trkpt lat="48.55475" lon="2.07011">
        <ele>153.620623</ele>
        <time>2025-10-12T16:24:33.047Z</time>
      </trkpt>
      <trkpt lat="48.55493" lon="2.07053">
        <ele>153.596541</ele>
        <time>2025-10-12T16:25:07.084Z</time>
      </trkpt>
      <trkpt lat="48.55498" lon="2.07095">
        <ele>153.597882</ele>
        <time>2025-10-12T16:25:36.014Z</time>
      </trkpt>
      <trkpt lat="48.55494" lon="2.07123">
        <ele>153.598766</ele>
        <time>2025-10-12T16:25:54.905Z</time>
      </trkpt>
      <trkpt lat="48.55463" lon="2.07201">
        <ele>153.601632</ele>
        <time>2025-10-12T16:26:55.362Z</time>
      </trkpt>
      <trkpt lat="48.55408" lon="2.07336">
        <ele>153.082133</ele>
        <time>2025-10-12T16:28:41.772Z</time>
      </trkpt>
      <trkpt lat="48.5534" lon="2.07583">
        <ele>151.546853</ele>
        <time>2025-10-12T16:31:42.471Z</time>
      </trkpt>
      <trkpt lat="48.55231" lon="2.07854">
        <ele>149.733714</ele>
        <time>2025-10-12T16:35:16.499Z</time>
      </trkpt>
      <trkpt lat="48.55185" lon="2.08118">
        <ele>148.539403</ele>
        <time>2025-10-12T16:38:19.978Z</time>
      </trkpt>
      <trkpt lat="48.54992" lon="2.08124">
        <ele>148.185323</ele>
        <time>2025-10-12T16:41:34.667Z</time>
      </trkpt>
      <trkpt lat="48.54808" lon="2.0813">
        <ele>149.995179</ele>
        <time>2025-10-12T16:44:46.071Z</time>
      </trkpt>
      <trkpt lat="48.54485" lon="2.08134">
        <ele>155.894279</ele>
        <time>2025-10-12T16:50:36.408Z</time>
      </trkpt>
      <trkpt lat="48.54485" lon="2.08134">
        <ele>155.895901</ele>
        <time>2025-10-12T16:50:36.654Z</time>
      </trkpt>
      <trkpt lat="48.54524" lon="2.08293">
        <ele>156.645392</ele>
        <time>2025-10-12T16:52:29.246Z</time>
      </trkpt>
      <trkpt lat="48.54533" lon="2.0834">
        <ele>156.280754</ele>
        <time>2025-10-12T16:53:02.920Z</time>
      </trkpt>
      <trkpt lat="48.54552" lon="2.08392">
        <ele>155.845919</ele>
        <time>2025-10-12T16:53:43.086Z</time>
      </trkpt>
      <trkpt lat="48.5458" lon="2.08446">
        <ele>155.339051</ele>
        <time>2025-10-12T16:54:29.913Z</time>
      </trkpt>
      <trkpt lat="48.54606" lon="2.08506">
        <ele>154.81349</ele>
        <time>2025-10-12T16:55:18.401Z</time>
      </trkpt>
      <trkpt lat="48.5463" lon="2.08592">
        <ele>153.825833</ele>
        <time>2025-10-12T16:56:21.418Z</time>
      </trkpt>
      <trkpt lat="48.54646" lon="2.08669">
        <ele>152.908698</ele>
        <time>2025-10-12T16:57:16.492Z</time>
      </trkpt>
      <trkpt lat="48.54653" lon="2.08735">
        <ele>152.14842</ele>
        <time>2025-10-12T16:58:02.614Z</time>
      </trkpt>
      <trkpt lat="48.54645" lon="2.08796">
        <ele>151.356089</ele>
        <time>2025-10-12T16:58:45.798Z</time>
      </trkpt>
      <trkpt lat="48.54628" lon="2.0887">
        <ele>149.961124</ele>
        <time>2025-10-12T16:59:41.035Z</time>
      </trkpt>
      <trkpt lat="48.54619" lon="2.08899">
        <ele>149.405064</ele>
        <time>2025-10-12T17:00:03.073Z</time>
      </trkpt>
      <trkpt lat="48.54586" lon="2.09002">
        <ele>147.355467</ele>
        <time>2025-10-12T17:01:23.732Z</time>
      </trkpt>
      <trkpt lat="48.54542" lon="2.09157">
        <ele>142.921315</ele>
        <time>2025-10-12T17:03:21.639Z</time>
      </trkpt>
      <trkpt lat="48.54527" lon="2.09182">
        <ele>141.983177</ele>
        <time>2025-10-12T17:03:45.867Z</time>
      </trkpt>
      <trkpt lat="48.5451" lon="2.09204">
        <ele>141.00875</ele>
        <time>2025-10-12T17:04:11.589Z</time>
      </trkpt>
      <trkpt lat="48.54498" lon="2.09228">
        <ele>140.153467</ele>
        <time>2025-10-12T17:04:34.196Z</time>
      </trkpt>
      <trkpt lat="48.54486" lon="2.09282">
        <ele>138.732597</ele>
        <time>2025-10-12T17:05:16.554Z</time>
      </trkpt>
      <trkpt lat="48.54482" lon="2.09325">
        <ele>137.956097</ele>
        <time>2025-10-12T17:05:48.531Z</time>
      </trkpt>
      <trkpt lat="48.54459" lon="2.09319">
        <ele>137.343093</ele>
        <time>2025-10-12T17:06:13.486Z</time>
      </trkpt>
      <trkpt lat="48.54418" lon="2.09205">
        <ele>135.02522</ele>
        <time>2025-10-12T17:07:43.757Z</time>
      </trkpt>
      <trkpt lat="48.54389" lon="2.09155">
        <ele>134.481903</ele>
        <time>2025-10-12T17:08:30.967Z</time>
      </trkpt>
      <trkpt lat="48.54388" lon="2.0911">
        <ele>135.053098</ele>
        <time>2025-10-12T17:09:03.176Z</time>
      </trkpt>
      <trkpt lat="48.54378" lon="2.09082">
        <ele>135.457486</ele>
        <time>2025-10-12T17:09:25.891Z</time>
      </trkpt>
      <trkpt lat="48.54378" lon="2.09039">
        <ele>136.005284</ele>
        <time>2025-10-12T17:09:56.530Z</time>
      </trkpt>
      <trkpt lat="48.54381" lon="2.09014">
        <ele>136.322935</ele>
        <time>2025-10-12T17:10:14.324Z</time>
      </trkpt>
      <trkpt lat="48.5438" lon="2.08962">
        <ele>136.98961</ele>
        <time>2025-10-12T17:10:51.665Z</time>
      </trkpt>
      <trkpt lat="48.5438" lon="2.08959">
        <ele>137.027877</ele>
        <time>2025-10-12T17:10:53.834Z</time>
      </trkpt>
      <trkpt lat="48.54383" lon="2.08902">
        <ele>137.762024</ele>
        <time>2025-10-12T17:11:34.519Z</time>
      </trkpt>
      <trkpt lat="48.5437" lon="2.08886">
        <ele>138.120222</ele>
        <time>2025-10-12T17:11:52.583Z</time>
      </trkpt>
      <trkpt lat="48.54355" lon="2.0885">
        <ele>138.721311</ele>
        <time>2025-10-12T17:12:22.856Z</time>
      </trkpt>
      <trkpt lat="48.54347" lon="2.08811">
        <ele>139.313224</ele>
        <time>2025-10-12T17:12:52.686Z</time>
      </trkpt>
      <trkpt lat="48.54341" lon="2.08744">
        <ele>140.283504</ele>
        <time>2025-10-12T17:13:41.735Z</time>
      </trkpt>
      <trkpt lat="48.54341" lon="2.08691">
        <ele>141.042861</ele>
        <time>2025-10-12T17:14:19.657Z</time>
      </trkpt>
      <trkpt lat="48.54341" lon="2.08682">
        <ele>141.165845</ele>
        <time>2025-10-12T17:14:25.701Z</time>
      </trkpt>
      <trkpt lat="48.54343" lon="2.0865">
        <ele>141.563474</ele>
        <time>2025-10-12T17:14:48.008Z</time>
      </trkpt>
      <trkpt lat="48.54349" lon="2.08628">
        <ele>141.622907</ele>
        <time>2025-10-12T17:15:04.772Z</time>
      </trkpt>
      <trkpt lat="48.54349" lon="2.08594">
        <ele>141.7056</ele>
        <time>2025-10-12T17:15:27.654Z</time>
      </trkpt>
      <trkpt lat="48.54354" lon="2.0857">
        <ele>141.767807</ele>
        <time>2025-10-12T17:15:44.794Z</time>
      </trkpt>
      <trkpt lat="48.54341" lon="2.08516">
        <ele>141.910034</ele>
        <time>2025-10-12T17:16:23.770Z</time>
      </trkpt>
      <trkpt lat="48.54323" lon="2.0849">
        <ele>142.000834</ele>
        <time>2025-10-12T17:16:48.633Z</time>
      </trkpt>
      <trkpt lat="48.54301" lon="2.08471">
        <ele>142.09525</ele>
        <time>2025-10-12T17:17:14.382Z</time>
      </trkpt>
      <trkpt lat="48.54292" lon="2.08445">
        <ele>142.167008</ele>
        <time>2025-10-12T17:17:33.832Z</time>
      </trkpt>
      <trkpt lat="48.54291" lon="2.08413">
        <ele>142.134526</ele>
        <time>2025-10-12T17:17:55.202Z</time>
      </trkpt>
      <trkpt lat="48.54305" lon="2.08389">
        <ele>141.896371</ele>
        <time>2025-10-12T17:18:16.843Z</time>
      </trkpt>
      <trkpt lat="48.54308" lon="2.0837">
        <ele>141.749941</ele>
        <time>2025-10-12T17:18:30.201Z</time>
      </trkpt>
      <trkpt lat="48.54318" lon="2.08355">
        <ele>141.591034</ele>
        <time>2025-10-12T17:18:44.756Z</time>
      </trkpt>
      <trkpt lat="48.54322" lon="2.0834">
        <ele>141.471641</ele>
        <time>2025-10-12T17:18:55.765Z</time>
      </trkpt>
      <trkpt lat="48.54301" lon="2.08295">
        <ele>141.059807</ele>
        <time>2025-10-12T17:19:33.743Z</time>
      </trkpt>
      <trkpt lat="48.54296" lon="2.08275">
        <ele>140.89883</ele>
        <time>2025-10-12T17:19:48.471Z</time>
      </trkpt>
      <trkpt lat="48.54257" lon="2.08274">
        <ele>140.454555</ele>
        <time>2025-10-12T17:20:28.867Z</time>
      </trkpt>
      <trkpt lat="48.54248" lon="2.08274">
        <ele>140.345755</ele>
        <time>2025-10-12T17:20:38.727Z</time>
      </trkpt>
      <trkpt lat="48.54255" lon="2.08208">
        <ele>141.002368</ele>
        <time>2025-10-12T17:21:23.396Z</time>
      </trkpt>
      <trkpt lat="48.54255" lon="2.0817">
        <ele>141.691632</ele>
        <time>2025-10-12T17:21:49.659Z</time>
      </trkpt>
      <trkpt lat="48.54265" lon="2.08158">
        <ele>142.061636</ele>
        <time>2025-10-12T17:22:04.347Z</time>
      </trkpt>
      <trkpt lat="48.54274" lon="2.08161">
        <ele>142.324864</ele>
        <time>2025-10-12T17:22:14.876Z</time>
      </trkpt>
      <trkpt lat="48.54291" lon="2.08196">
        <ele>143.117456</ele>
        <time>2025-10-12T17:22:48.372Z</time>
      </trkpt>
      <trkpt lat="48.54305" lon="2.08181">
        <ele>143.582188</ele>
        <time>2025-10-12T17:23:08.849Z</time>
      </trkpt>
      <trkpt lat="48.54316" lon="2.08159">
        <ele>144.093397</ele>
        <time>2025-10-12T17:23:31.765Z</time>
      </trkpt>
      <trkpt lat="48.54322" lon="2.08137">
        <ele>144.536989</ele>
        <time>2025-10-12T17:23:51.183Z</time>
      </trkpt>
      <trkpt lat="48.54321" lon="2.08118">
        <ele>144.880253</ele>
        <time>2025-10-12T17:24:05.734Z</time>
      </trkpt>
      <trkpt lat="48.54333" lon="2.08101">
        <ele>144.766944</ele>
        <time>2025-10-12T17:24:24.433Z</time>
      </trkpt>
      <trkpt lat="48.54379" lon="2.08094">
        <ele>142.35071</ele>
        <time>2025-10-12T17:25:11.424Z</time>
      </trkpt>
      <trkpt lat="48.54388" lon="2.08097">
        <ele>141.870988</ele>
        <time>2025-10-12T17:25:20.790Z</time>
      </trkpt>
      <trkpt lat="48.5429" lon="2.07984">
        <ele>134.979442</ele>
        <time>2025-10-12T17:27:44.956Z</time>
      </trkpt>
      <trkpt lat="48.54257" lon="2.07984">
        <ele>130.664091</ele>
        <time>2025-10-12T17:28:26.081Z</time>
      </trkpt>
      <trkpt lat="48.54236" lon="2.0797">
        <ele>127.643396</ele>
        <time>2025-10-12T17:28:55.107Z</time>
      </trkpt>
      <trkpt lat="48.54218" lon="2.0795">
        <ele>124.672121</ele>
        <time>2025-10-12T17:29:23.611Z</time>
      </trkpt>
      <trkpt lat="48.54185" lon="2.07891">
        <ele>117.890554</ele>
        <time>2025-10-12T17:30:29.298Z</time>
      </trkpt>
      <trkpt lat="48.54169" lon="2.07878">
        <ele>115.505629</ele>
        <time>2025-10-12T17:30:52.210Z</time>
      </trkpt>
      <trkpt lat="48.54125" lon="2.07897">
        <ele>109.556718</ele>
        <time>2025-10-12T17:31:49.261Z</time>
      </trkpt>
      <trkpt lat="48.54105" lon="2.07906">
        <ele>106.846062</ele>
        <time>2025-10-12T17:32:15.990Z</time>
      </trkpt>
      <trkpt lat="48.54071" lon="2.07912">
        <ele>102.489213</ele>
        <time>2025-10-12T17:32:59.364Z</time>
      </trkpt>
      <trkpt lat="48.54032" lon="2.07883">
        <ele>96.794896</ele>
        <time>2025-10-12T17:33:55.851Z</time>
      </trkpt>
      <trkpt lat="48.54007" lon="2.07879">
        <ele>93.622501</ele>
        <time>2025-10-12T17:34:26.699Z</time>
      </trkpt>
      <trkpt lat="48.53993" lon="2.07887">
        <ele>91.646299</ele>
        <time>2025-10-12T17:34:45.584Z</time>
      </trkpt>
      <trkpt lat="48.53934" lon="2.07943">
        <ele>88.667524</ele>
        <time>2025-10-12T17:36:07.665Z</time>
      </trkpt>
      <trkpt lat="48.53931" lon="2.07939">
        <ele>88.667524</ele>
        <time>2025-10-12T17:36:12.398Z</time>
      </trkpt>
      <trkpt lat="48.53924" lon="2.07942">
        <ele>88.667524</ele>
        <time>2025-10-12T17:36:20.025Z</time>
      </trkpt>
      <trkpt lat="48.53923" lon="2.07952">
        <ele>88.667524</ele>
        <time>2025-10-12T17:36:27.609Z</time>
      </trkpt>
      <trkpt lat="48.53893" lon="2.07975">
        <ele>88.667524</ele>
        <time>2025-10-12T17:37:04.293Z</time>
      </trkpt>
      <trkpt lat="48.53885" lon="2.07981">
        <ele>88.667524</ele>
        <time>2025-10-12T17:37:13.647Z</time>
      </trkpt>
      <trkpt lat="48.53876" lon="2.07987">
        <ele>88.667524</ele>
        <time>2025-10-12T17:37:23.895Z</time>
      </trkpt>
      <trkpt lat="48.53863" lon="2.07959">
        <ele>88.667524</ele>
        <time>2025-10-12T17:37:46.800Z</time>
      </trkpt>
      <trkpt lat="48.53866" lon="2.07945">
        <ele>88.667524</ele>
        <time>2025-10-12T17:37:56.938Z</time>
      </trkpt>
      <trkpt lat="48.53871" lon="2.0794">
        <ele>88.667524</ele>
        <time>2025-10-12T17:38:02.805Z</time>
      </trkpt>
      <trkpt lat="48.5388" lon="2.07932">
        <ele>88.667524</ele>
        <time>2025-10-12T17:38:13.226Z</time>
      </trkpt>
    </trkseg>
  </trk>
</gpx>